createdAt,value
2017-12-16T00:01:51.101Z,75.50
2017-12-16T00:04:17.372Z,76.10
2017-12-16T00:06:43.722Z,76.30
2017-12-16T00:09:10.034Z,75.70
2017-12-16T00:11:36.313Z,75.60
2017-12-16T00:14:03.306Z,75.90
2017-12-16T00:16:30.285Z,75.90
2017-12-16T00:18:56.603Z,75.90
2017-12-16T00:21:22.916Z,75.40
2017-12-16T00:23:52.653Z,76.20
2017-12-16T00:26:18.905Z,75.80
2017-12-16T00:28:45.165Z,75.30
2017-12-16T00:31:11.470Z,75.70
2017-12-16T00:33:37.766Z,75.10
2017-12-16T00:36:04.075Z,74.50
2017-12-16T00:38:30.362Z,74.40
2017-12-16T00:40:59.284Z,74.90
2017-12-16T00:43:25.591Z,75.30
2017-12-16T00:45:52.661Z,76.20
2017-12-16T00:48:22.752Z,76.20
2017-12-16T00:50:49.042Z,76.00
2017-12-16T00:53:16.072Z,76.20
2017-12-16T00:55:42.358Z,76.20
2017-12-16T00:58:08.642Z,75.80
2017-12-16T01:00:34.925Z,75.50
2017-12-16T01:03:01.215Z,75.70
2017-12-16T01:05:27.536Z,76.20
2017-12-16T01:07:53.829Z,76.50
2017-12-16T01:10:20.117Z,76.40
2017-12-16T01:12:47.117Z,77.50
2017-12-16T01:15:13.433Z,77.50
2017-12-16T01:17:40.522Z,77.40
2017-12-16T01:20:07.537Z,77.00
2017-12-16T01:22:34.708Z,77.00
2017-12-16T01:25:00.969Z,76.40
2017-12-16T01:27:27.334Z,76.80
2017-12-16T01:29:53.649Z,76.80
2017-12-16T01:32:19.905Z,76.20
2017-12-16T01:34:58.521Z,77.00
2017-12-16T01:37:37.120Z,76.80
2017-12-16T01:40:03.479Z,77.00
2017-12-16T01:42:30.357Z,76.60
2017-12-16T01:44:56.635Z,76.10
2017-12-16T01:47:22.925Z,76.20
2017-12-16T01:49:49.202Z,76.40
2017-12-16T01:52:15.481Z,77.30
2017-12-16T01:54:42.136Z,77.50
2017-12-16T01:57:09.146Z,77.10
2017-12-16T01:59:35.469Z,77.10
2017-12-16T02:02:01.738Z,77.90
2017-12-16T02:04:28.012Z,77.80
2017-12-16T02:06:55.417Z,77.90
2017-12-16T02:09:21.816Z,77.80
2017-12-16T02:11:48.141Z,77.80
2017-12-16T02:14:15.179Z,77.50
2017-12-16T02:16:41.437Z,77.50
2017-12-16T02:19:07.745Z,77.70
2017-12-16T02:21:34.742Z,77.60
2017-12-16T02:24:01.061Z,77.50
2017-12-16T02:26:27.341Z,78.30
2017-12-16T02:28:53.626Z,78.70
2017-12-16T02:31:19.950Z,78.60
2017-12-16T02:33:46.246Z,78.70
2017-12-16T02:36:12.518Z,78.70
2017-12-16T02:38:38.801Z,78.10
2017-12-16T02:41:05.798Z,79.10
2017-12-16T02:43:32.065Z,78.90
2017-12-16T02:45:58.337Z,79.40
2017-12-16T02:48:24.615Z,78.70
2017-12-16T02:50:50.896Z,77.90
2017-12-16T02:53:17.901Z,79.80
2017-12-16T02:55:44.164Z,79.60
2017-12-16T02:58:10.465Z,79.30
2017-12-16T03:00:36.793Z,78.70
2017-12-16T03:03:03.825Z,78.80
2017-12-16T03:05:30.089Z,78.80
2017-12-16T03:07:57.106Z,77.80
2017-12-16T03:10:23.365Z,77.70
2017-12-16T03:12:49.718Z,77.60
2017-12-16T03:15:16.736Z,78.30
2017-12-16T03:17:43.021Z,78.30
2017-12-16T03:20:09.270Z,77.90
2017-12-16T03:22:35.554Z,77.40
2017-12-16T03:25:01.880Z,77.90
2017-12-16T03:27:28.157Z,78.60
2017-12-16T03:29:54.405Z,78.10
2017-12-16T03:32:20.706Z,78.80
2017-12-16T03:34:47.685Z,78.60
2017-12-16T03:37:13.962Z,78.60
2017-12-16T03:39:40.231Z,78.30
2017-12-16T03:42:07.214Z,78.10
2017-12-16T03:44:33.469Z,78.10
2017-12-16T03:46:59.734Z,77.90
2017-12-16T03:49:25.994Z,77.30
2017-12-16T03:51:52.994Z,78.30
2017-12-16T03:54:19.471Z,78.10
2017-12-16T03:56:45.759Z,77.90
2017-12-16T03:59:11.914Z,77.40
2017-12-16T04:01:38.069Z,77.90
2017-12-16T04:04:04.113Z,77.80
2017-12-16T04:06:30.174Z,77.90
2017-12-16T04:08:56.245Z,78.70
2017-12-16T04:11:22.318Z,78.80
2017-12-16T04:13:49.173Z,78.90
2017-12-16T04:16:15.254Z,78.90
2017-12-16T04:18:42.058Z,79.10
2017-12-16T04:21:08.302Z,79.10
2017-12-16T04:23:34.357Z,78.80
2017-12-16T04:26:00.413Z,78.60
2017-12-16T04:28:26.546Z,78.60
2017-12-16T04:30:52.612Z,78.10
2017-12-16T04:33:18.713Z,79.80
2017-12-16T04:35:44.771Z,79.60
2017-12-16T04:38:11.598Z,78.60
2017-12-16T04:40:37.698Z,78.50
2017-12-16T04:43:06.799Z,79.00
2017-12-16T04:45:32.853Z,79.00
2017-12-16T04:47:58.916Z,79.80
2017-12-16T04:50:24.981Z,79.60
2017-12-16T04:52:51.046Z,80.70
2017-12-16T04:55:17.633Z,79.70
2017-12-16T04:57:43.689Z,79.30
2017-12-16T05:00:10.702Z,80.10
2017-12-16T05:02:36.803Z,81.20
2017-12-16T05:05:02.863Z,81.50
2017-12-16T05:07:29.689Z,79.70
2017-12-16T05:09:55.737Z,79.70
2017-12-16T05:12:23.911Z,80.90
2017-12-16T05:14:49.998Z,81.40
2017-12-16T05:17:16.790Z,84.50
2017-12-16T05:19:42.870Z,84.50
2017-12-16T05:22:08.930Z,84.40
2017-12-16T05:24:35.742Z,84.70
2017-12-16T05:27:01.834Z,84.60
2017-12-16T05:29:27.884Z,85.10
2017-12-16T05:31:53.978Z,84.60
2017-12-16T05:34:20.042Z,86.20
2017-12-16T05:36:46.118Z,86.60
2017-12-16T05:39:12.180Z,86.20
2017-12-16T05:41:38.233Z,85.10
2017-12-16T05:44:05.040Z,84.30
2017-12-16T05:46:31.112Z,84.30
2017-12-16T05:48:57.173Z,84.30
2017-12-16T05:51:24.009Z,83.90
2017-12-16T05:53:50.101Z,83.90
2017-12-16T05:56:16.169Z,84.40
2017-12-16T05:58:42.237Z,84.00
2017-12-16T06:01:09.033Z,84.10
2017-12-16T06:03:35.097Z,84.10
2017-12-16T06:06:01.155Z,83.60
2017-12-16T06:08:27.217Z,84.00
2017-12-16T06:10:54.020Z,83.90
2017-12-16T06:13:20.086Z,83.90
2017-12-16T06:15:46.901Z,84.30
2017-12-16T06:18:12.986Z,84.30
2017-12-16T06:20:39.793Z,83.90
2017-12-16T06:23:05.866Z,83.90
2017-12-16T06:25:31.937Z,84.30
2017-12-16T06:27:58.017Z,84.00
2017-12-16T06:30:24.426Z,83.20
2017-12-16T06:32:50.527Z,83.70
2017-12-16T06:35:16.709Z,84.50
2017-12-16T06:37:42.769Z,83.70
2017-12-16T06:40:08.838Z,83.80
2017-12-16T06:42:34.903Z,83.60
2017-12-16T06:45:00.970Z,84.40
2017-12-16T06:47:27.030Z,84.60
2017-12-16T06:49:53.106Z,85.10
2017-12-16T06:52:19.898Z,84.60
2017-12-16T06:54:45.963Z,84.60
2017-12-16T06:57:12.074Z,84.70
2017-12-16T06:59:38.157Z,84.00
2017-12-16T07:02:04.229Z,83.20
2017-12-16T07:04:30.292Z,85.30
2017-12-16T07:06:56.365Z,84.80
2017-12-16T07:09:22.424Z,85.20
2017-12-16T07:11:49.251Z,86.10
2017-12-16T07:14:15.320Z,85.70
2017-12-16T07:16:42.124Z,87.20
2017-12-16T07:19:08.270Z,87.10
2017-12-16T07:21:34.359Z,87.00
2017-12-16T07:24:01.161Z,86.20
2017-12-16T07:26:27.228Z,86.00
2017-12-16T07:28:54.034Z,86.70
2017-12-16T07:31:20.094Z,86.70
2017-12-16T07:33:46.149Z,86.50
2017-12-16T07:36:12.217Z,87.70
2017-12-16T07:38:39.062Z,88.80
2017-12-16T07:41:05.925Z,88.70
2017-12-16T07:43:32.729Z,88.40
2017-12-16T07:45:58.790Z,88.30
2017-12-16T07:48:24.888Z,87.80
2017-12-16T07:50:50.977Z,88.80
2017-12-16T07:53:17.115Z,89.80
2017-12-16T07:55:43.169Z,90.20
2017-12-16T07:58:10.718Z,90.20
2017-12-16T08:00:36.801Z,90.20
2017-12-16T08:03:02.874Z,89.80
2017-12-16T08:05:28.978Z,88.50
2017-12-16T08:07:55.042Z,88.30
2017-12-16T08:10:21.138Z,89.60
2017-12-16T08:12:47.294Z,88.60
2017-12-16T08:15:13.372Z,89.70
2017-12-16T08:17:39.439Z,89.70
2017-12-16T08:20:06.253Z,88.70
2017-12-16T08:22:32.625Z,88.60
2017-12-16T08:24:58.697Z,89.00
2017-12-16T08:27:24.874Z,88.20
2017-12-16T08:29:54.665Z,89.40
2017-12-16T08:32:20.716Z,87.70
2017-12-16T08:34:46.769Z,86.80
2017-12-16T08:37:12.824Z,87.40
2017-12-16T08:39:38.918Z,87.30
2017-12-16T08:42:05.161Z,86.20
2017-12-16T08:44:31.217Z,86.80
2017-12-16T08:46:57.300Z,86.40
2017-12-16T08:49:24.123Z,86.30
2017-12-16T08:51:50.939Z,85.10
2017-12-16T08:54:17.084Z,85.00
2017-12-16T08:56:43.155Z,85.30
2017-12-16T08:59:10.498Z,86.70
2017-12-16T09:01:36.586Z,85.50
2017-12-16T09:04:05.216Z,87.20
2017-12-16T09:06:31.400Z,87.20
2017-12-16T09:08:57.783Z,84.80
2017-12-16T09:11:24.594Z,85.40
2017-12-16T09:13:50.669Z,85.40
2017-12-16T09:16:17.480Z,84.10
2017-12-16T09:18:43.547Z,84.10
2017-12-16T09:21:09.614Z,84.70
2017-12-16T09:23:35.683Z,83.90
2017-12-16T09:26:01.785Z,84.00
2017-12-16T09:28:28.572Z,84.00
2017-12-16T09:30:54.629Z,83.90
2017-12-16T09:33:20.689Z,84.70
2017-12-16T09:35:47.513Z,84.00
2017-12-16T09:38:13.556Z,84.00
2017-12-16T09:40:39.626Z,83.60
2017-12-16T09:43:06.426Z,84.40
2017-12-16T09:45:32.475Z,84.40
2017-12-16T09:47:58.605Z,83.10
2017-12-16T09:50:24.696Z,83.70
2017-12-16T09:52:51.582Z,82.50
2017-12-16T09:55:17.682Z,82.90
2017-12-16T09:57:44.479Z,80.90
2017-12-16T10:00:10.529Z,80.90
2017-12-16T10:02:36.661Z,82.40
2017-12-16T10:05:02.781Z,82.70
2017-12-16T10:07:28.841Z,81.70
2017-12-16T10:09:54.948Z,81.00
2017-12-16T10:12:21.758Z,81.00
2017-12-16T10:14:51.429Z,81.00
2017-12-16T10:17:17.516Z,80.30
2017-12-16T10:19:43.600Z,80.10
2017-12-16T10:22:10.393Z,77.70
2017-12-16T10:24:36.448Z,77.70
2017-12-16T10:27:02.532Z,80.30
2017-12-16T10:29:28.639Z,79.50
2017-12-16T10:31:54.708Z,79.40
2017-12-16T10:34:21.524Z,80.50
2017-12-16T10:36:47.576Z,80.40
2017-12-16T10:39:13.661Z,79.90
2017-12-16T10:41:40.453Z,81.00
2017-12-16T10:44:06.512Z,81.00
2017-12-16T10:46:32.574Z,80.30
2017-12-16T10:48:58.616Z,79.80
2017-12-16T10:51:24.684Z,78.60
2017-12-16T10:53:50.751Z,76.70
2017-12-16T10:56:16.817Z,77.00
2017-12-16T10:58:42.866Z,76.80
2017-12-16T11:01:08.989Z,72.90
2017-12-16T11:03:35.681Z,75.40
2017-12-16T11:06:02.845Z,73.60
2017-12-16T11:08:28.944Z,74.30
2017-12-16T11:10:55.062Z,75.40
2017-12-16T11:13:21.130Z,74.40
2017-12-16T11:15:48.005Z,76.30
2017-12-16T11:18:14.206Z,76.20
2017-12-16T11:20:40.248Z,78.20
2017-12-16T11:23:06.297Z,74.50
2017-12-16T11:25:33.112Z,74.70
2017-12-16T11:27:59.173Z,74.70
2017-12-16T11:30:25.256Z,74.10
2017-12-16T11:32:51.322Z,75.50
2017-12-16T11:35:17.395Z,77.50
2017-12-16T11:37:43.486Z,76.70
2017-12-16T11:40:09.567Z,76.30
2017-12-16T11:42:35.626Z,74.80
2017-12-16T11:45:02.486Z,75.20
2017-12-16T11:47:28.560Z,75.20
2017-12-16T11:49:54.654Z,75.60
2017-12-16T11:52:22.877Z,74.30
2017-12-16T11:54:49.123Z,74.20
2017-12-16T11:57:15.390Z,74.90
2017-12-16T11:59:41.666Z,73.60
2017-12-16T12:02:08.842Z,71.70
2017-12-16T12:04:35.872Z,74.50
2017-12-16T12:07:02.141Z,74.40
2017-12-16T12:09:28.403Z,74.50
2017-12-16T12:11:58.933Z,73.90
2017-12-16T12:14:25.182Z,74.00
2017-12-16T12:16:54.841Z,74.00
2017-12-16T12:19:21.114Z,73.60
2017-12-16T12:21:47.369Z,73.60
2017-12-16T12:24:14.485Z,73.20
2017-12-16T12:26:40.761Z,73.40
2017-12-16T12:29:07.028Z,74.30
2017-12-16T12:31:34.029Z,68.90
2017-12-16T12:34:00.311Z,68.80
2017-12-16T12:36:26.613Z,68.90
2017-12-16T12:38:52.956Z,68.30
2017-12-16T12:41:19.272Z,69.40
2017-12-16T12:43:45.549Z,68.80
2017-12-16T12:46:12.973Z,71.20
2017-12-16T12:48:39.969Z,71.30
2017-12-16T12:51:06.224Z,71.30
2017-12-16T12:53:32.464Z,70.80
2017-12-16T12:55:58.757Z,71.10
2017-12-16T12:58:24.985Z,69.40
2017-12-16T13:00:52.048Z,70.30
2017-12-16T13:03:18.349Z,70.20
2017-12-16T13:05:44.605Z,70.00
2017-12-16T13:08:10.934Z,70.70
2017-12-16T13:10:37.203Z,70.80
2017-12-16T13:13:03.501Z,70.80
2017-12-16T13:15:29.778Z,72.00
2017-12-16T13:17:56.013Z,72.20
2017-12-16T13:20:22.312Z,72.40
2017-12-16T13:22:48.766Z,71.80
2017-12-16T13:25:15.073Z,73.60
2017-12-16T13:27:42.097Z,71.50
2017-12-16T13:30:08.378Z,71.30
2017-12-16T13:32:34.658Z,70.60
2017-12-16T13:35:00.934Z,70.90
2017-12-16T13:37:28.744Z,72.20
2017-12-16T13:39:54.992Z,70.70
2017-12-16T13:42:22.123Z,70.80
2017-12-16T13:44:48.390Z,70.80
2017-12-16T13:47:14.684Z,71.50
2017-12-16T13:49:41.689Z,70.60
2017-12-16T13:52:12.828Z,70.50
2017-12-16T13:54:39.833Z,71.70
2017-12-16T13:57:06.232Z,71.70
2017-12-16T13:59:32.498Z,71.60
2017-12-16T14:01:58.764Z,71.70
2017-12-16T14:04:25.057Z,72.00
2017-12-16T14:06:57.207Z,71.70
2017-12-16T14:09:23.546Z,71.70
2017-12-16T14:11:49.845Z,71.70
2017-12-16T14:14:16.162Z,72.40
2017-12-16T14:16:42.478Z,71.90
2017-12-16T14:19:08.716Z,72.40
2017-12-16T14:21:34.984Z,72.50
2017-12-16T14:24:03.710Z,72.20
2017-12-16T14:26:32.723Z,72.20
2017-12-16T14:28:58.963Z,72.30
2017-12-16T14:31:25.214Z,73.60
2017-12-16T14:33:51.501Z,73.20
2017-12-16T14:36:17.804Z,72.60
2017-12-16T14:38:44.132Z,73.00
2017-12-16T14:41:10.537Z,71.70
2017-12-16T14:43:36.840Z,72.10
2017-12-16T14:46:03.121Z,73.10
2017-12-16T14:48:29.374Z,71.70
2017-12-16T14:50:55.619Z,71.70
2017-12-16T14:53:21.866Z,71.80
2017-12-16T14:55:48.159Z,72.90
2017-12-16T14:58:14.507Z,72.80
2017-12-16T15:00:40.765Z,73.50
2017-12-16T15:03:07.073Z,73.90
2017-12-16T15:05:34.163Z,75.00
2017-12-16T15:08:01.271Z,74.90
2017-12-16T15:10:28.135Z,74.70
2017-12-16T15:12:54.466Z,74.20
2017-12-16T15:15:20.717Z,72.60
2017-12-16T15:17:47.002Z,72.40
2017-12-16T15:20:13.257Z,72.30
2017-12-16T15:22:39.565Z,71.90
2017-12-16T15:25:05.820Z,71.90
2017-12-16T15:27:34.218Z,72.20
2017-12-16T15:30:00.533Z,71.70
2017-12-16T15:32:26.795Z,72.40
2017-12-16T15:34:53.118Z,73.10
2017-12-16T15:37:19.445Z,73.50
2017-12-16T15:39:45.787Z,73.10
2017-12-16T15:42:12.167Z,73.50
2017-12-16T15:44:40.442Z,73.80
2017-12-16T15:47:06.718Z,73.80
2017-12-16T15:49:33.010Z,74.20
2017-12-16T15:51:59.277Z,74.50
2017-12-16T15:54:25.536Z,73.60
2017-12-16T15:56:51.853Z,72.60
2017-12-16T15:59:18.836Z,73.00
2017-12-16T16:01:46.697Z,73.00
2017-12-16T16:04:13.850Z,73.50
2017-12-16T16:06:40.873Z,74.10
2017-12-16T16:09:07.135Z,74.00
2017-12-16T16:11:34.162Z,74.00
2017-12-16T16:14:00.441Z,73.80
2017-12-16T16:16:30.917Z,74.70
2017-12-16T16:18:57.167Z,74.60
2017-12-16T16:21:24.206Z,75.00
2017-12-16T16:23:50.506Z,75.00
2017-12-16T16:26:16.756Z,76.20
2017-12-16T16:28:43.039Z,75.50
2017-12-16T16:31:09.325Z,75.70
2017-12-16T16:33:40.009Z,76.00
2017-12-16T16:36:06.266Z,75.80
2017-12-16T16:38:32.565Z,76.10
2017-12-16T16:40:59.709Z,76.40
2017-12-16T16:43:26.790Z,76.70
2017-12-16T16:45:53.087Z,76.70
2017-12-16T16:48:20.106Z,76.50
2017-12-16T16:50:51.629Z,76.30
2017-12-16T16:53:18.705Z,76.00
2017-12-16T16:55:44.984Z,75.80
2017-12-16T16:58:11.288Z,77.20
2017-12-16T17:00:38.454Z,78.10
2017-12-16T17:03:04.744Z,78.00
2017-12-16T17:05:31.009Z,77.80
2017-12-16T17:07:57.305Z,78.20
2017-12-16T17:10:27.563Z,78.80
2017-12-16T17:12:53.862Z,77.50
2017-12-16T17:15:20.922Z,78.10
2017-12-16T17:17:48.031Z,78.70
2017-12-16T17:20:14.302Z,78.70
2017-12-16T17:22:40.562Z,79.40
2017-12-16T17:25:06.841Z,78.60
2017-12-16T17:27:33.847Z,77.60
2017-12-16T17:30:01.967Z,77.60
2017-12-16T17:32:28.293Z,77.80
2017-12-16T17:34:54.532Z,77.90
2017-12-16T17:37:20.820Z,78.80
2017-12-16T17:39:47.097Z,79.30
2017-12-16T17:42:14.094Z,79.00
2017-12-16T17:44:40.359Z,79.00
2017-12-16T17:47:11.697Z,80.50
2017-12-16T17:49:37.938Z,79.90
2017-12-16T17:52:04.225Z,79.50
2017-12-16T17:54:30.446Z,79.00
2017-12-16T17:56:56.707Z,79.20
2017-12-16T17:59:22.983Z,79.00
2017-12-16T18:01:49.233Z,79.00
2017-12-16T18:04:17.688Z,79.40
2017-12-16T18:06:44.065Z,80.40
2017-12-16T18:09:10.759Z,80.10
2017-12-16T18:11:37.040Z,80.40
2017-12-16T18:14:03.276Z,80.30
2017-12-16T18:16:30.259Z,80.40
2017-12-16T18:18:56.529Z,80.30
2017-12-16T18:21:22.777Z,79.70
2017-12-16T18:23:49.025Z,80.20
2017-12-16T18:26:17.361Z,80.30
2017-12-16T18:28:44.361Z,80.30
2017-12-16T18:31:11.155Z,80.30
2017-12-16T18:33:37.450Z,80.40
2017-12-16T18:36:03.741Z,79.60
2017-12-16T18:38:30.163Z,80.00
2017-12-16T18:41:03.308Z,79.60
2017-12-16T18:43:29.549Z,79.50
2017-12-16T18:45:55.912Z,79.90
2017-12-16T18:48:22.170Z,79.70
2017-12-16T18:50:48.490Z,80.40
2017-12-16T18:53:14.769Z,80.20
2017-12-16T18:55:41.765Z,81.70
2017-12-16T18:58:09.824Z,81.60
2017-12-16T19:00:36.099Z,81.10
2017-12-16T19:03:03.142Z,81.10
2017-12-16T19:05:29.544Z,81.00
2017-12-16T19:07:55.772Z,80.30
2017-12-16T19:10:22.032Z,81.70
2017-12-16T19:12:49.062Z,81.30
2017-12-16T19:15:15.338Z,81.30
2017-12-16T19:17:45.174Z,80.80
2017-12-16T19:20:11.538Z,81.10
2017-12-16T19:22:37.820Z,81.50
2017-12-16T19:25:04.095Z,80.90
2017-12-16T19:27:30.365Z,80.50
2017-12-16T19:29:57.367Z,81.90
2017-12-16T19:32:24.353Z,82.10
2017-12-16T19:34:54.044Z,82.10
2017-12-16T19:37:21.123Z,82.50
2017-12-16T19:39:47.406Z,82.30
2017-12-16T19:42:13.698Z,82.50
2017-12-16T19:44:40.034Z,82.10
2017-12-16T19:47:06.324Z,82.60
2017-12-16T19:49:32.706Z,83.00
2017-12-16T19:52:04.057Z,82.60
2017-12-16T19:54:31.094Z,82.00
2017-12-16T19:56:57.358Z,82.00
2017-12-16T19:59:23.628Z,82.20
2017-12-16T20:01:49.925Z,82.80
2017-12-16T20:04:16.897Z,83.00
2017-12-16T20:06:43.144Z,83.00
2017-12-16T20:09:17.861Z,82.90
2017-12-16T20:11:44.178Z,82.70
2017-12-16T20:14:10.453Z,83.30
2017-12-16T20:16:36.697Z,84.00
2017-12-16T20:19:03.025Z,84.10
2017-12-16T20:21:30.054Z,84.50
2017-12-16T20:23:56.328Z,84.50
2017-12-16T20:26:22.557Z,84.60
2017-12-16T20:28:52.678Z,85.70
2017-12-16T20:31:19.022Z,84.60
2017-12-16T20:33:45.281Z,83.80
2017-12-16T20:36:11.526Z,83.20
2017-12-16T20:38:37.804Z,84.70
2017-12-16T20:41:04.053Z,85.80
2017-12-16T20:43:30.464Z,85.10
2017-12-16T20:45:56.749Z,85.30
2017-12-16T20:48:27.661Z,84.00
2017-12-16T20:50:53.933Z,83.60
2017-12-16T20:53:20.309Z,83.50
2017-12-16T20:55:46.558Z,84.00
2017-12-16T20:58:12.788Z,85.10
2017-12-16T21:00:39.225Z,84.80
2017-12-16T21:03:05.493Z,85.10
2017-12-16T21:05:31.706Z,84.60
2017-12-16T21:08:04.605Z,84.50
2017-12-16T21:10:30.909Z,84.90
2017-12-16T21:12:57.169Z,84.40
2017-12-16T21:15:23.391Z,84.90
2017-12-16T21:17:49.729Z,84.80
2017-12-16T21:20:15.998Z,85.50
2017-12-16T21:22:43.017Z,84.60
2017-12-16T21:25:09.254Z,84.90
2017-12-16T21:27:38.565Z,84.90
2017-12-16T21:30:05.579Z,84.00
2017-12-16T21:32:31.829Z,84.00
2017-12-16T21:34:58.843Z,83.40
2017-12-16T21:37:25.059Z,83.40
2017-12-16T21:39:52.091Z,84.20
2017-12-16T21:42:18.329Z,84.20
2017-12-16T21:44:47.333Z,85.00
2017-12-16T21:47:13.549Z,86.00
2017-12-16T21:49:40.215Z,85.30
2017-12-16T21:52:06.480Z,85.30
2017-12-16T21:54:32.782Z,84.80
2017-12-16T21:56:59.101Z,85.10
2017-12-16T21:59:25.398Z,84.70
2017-12-16T22:01:51.642Z,84.30
2017-12-16T22:04:22.012Z,86.00
2017-12-16T22:06:49.433Z,85.50
2017-12-16T22:09:16.429Z,86.20
2017-12-16T22:11:42.661Z,86.10
2017-12-16T22:14:08.997Z,86.40
2017-12-16T22:16:35.273Z,86.50
2017-12-16T22:19:01.531Z,86.10
2017-12-16T22:21:27.787Z,86.20
2017-12-16T22:23:54.015Z,85.90
2017-12-16T22:26:20.986Z,86.80
2017-12-16T22:28:47.272Z,86.80
2017-12-16T22:31:13.498Z,85.80
2017-12-16T22:33:39.799Z,85.80
2017-12-16T22:36:06.061Z,86.00
2017-12-16T22:38:32.337Z,86.00
2017-12-16T22:40:58.612Z,86.30
2017-12-16T22:43:25.666Z,85.50
2017-12-16T22:45:52.662Z,85.30
2017-12-16T22:48:18.958Z,85.20
2017-12-16T22:50:45.249Z,85.40
2017-12-16T22:53:11.537Z,85.00
2017-12-16T22:55:38.587Z,87.00
2017-12-16T22:58:05.334Z,86.90
2017-12-16T23:00:32.566Z,88.10
2017-12-16T23:02:58.837Z,87.90
2017-12-16T23:05:25.085Z,88.00
2017-12-16T23:07:51.397Z,88.20
2017-12-16T23:10:17.651Z,88.60
2017-12-16T23:12:44.003Z,90.30
2017-12-16T23:15:10.330Z,91.00
2017-12-16T23:17:36.719Z,91.20
2017-12-16T23:20:03.009Z,91.40
2017-12-16T23:22:29.442Z,91.40
2017-12-16T23:24:57.450Z,90.80
2017-12-16T23:27:23.744Z,90.40
2017-12-16T23:29:50.147Z,90.80
2017-12-16T23:32:16.425Z,91.30
2017-12-16T23:34:43.407Z,92.10
2017-12-16T23:37:09.733Z,92.00
2017-12-16T23:39:36.023Z,92.10
2017-12-16T23:42:02.266Z,92.20
2017-12-16T23:44:28.591Z,92.00
2017-12-16T23:46:54.841Z,92.40
2017-12-16T23:49:21.085Z,91.90
2017-12-16T23:51:47.390Z,92.00
2017-12-16T23:54:13.717Z,92.20
2017-12-16T23:56:40.035Z,92.50
2017-12-16T23:59:06.327Z,92.20
